createdAt,value
2022-08-27T00:01:57.009Z,16.60
2022-08-27T00:04:58.351Z,16.63
2022-08-27T00:07:59.698Z,16.62
2022-08-27T00:11:01.057Z,16.51
2022-08-27T00:14:02.560Z,16.49
2022-08-27T00:17:04.837Z,16.56
2022-08-27T00:20:06.900Z,16.61
2022-08-27T00:23:08.253Z,16.56
2022-08-27T00:26:10.308Z,16.50
2022-08-27T00:29:11.676Z,16.51
2022-08-27T00:32:13.115Z,16.52
2022-08-27T00:35:15.924Z,16.52
2022-08-27T00:38:17.392Z,16.53
2022-08-27T00:41:19.239Z,16.53
2022-08-27T00:44:20.598Z,16.47
2022-08-27T00:47:24.169Z,16.46
2022-08-27T00:50:29.868Z,16.42
2022-08-27T00:53:33.220Z,16.48
2022-08-27T00:56:37.333Z,16.48
2022-08-27T00:59:38.676Z,16.49
2022-08-27T01:02:40.028Z,16.49
2022-08-27T01:05:41.376Z,16.45
2022-08-27T01:08:48.216Z,16.47
2022-08-27T01:11:49.560Z,16.50
2022-08-27T01:14:51.273Z,16.43
2022-08-27T01:17:52.623Z,16.42
2022-08-27T01:21:01.927Z,16.45
2022-08-27T01:24:23.470Z,16.47
2022-08-27T01:27:26.738Z,16.45
2022-08-27T01:30:28.097Z,16.48
2022-08-27T01:33:29.495Z,16.51
2022-08-27T01:36:30.848Z,16.46
2022-08-27T01:39:35.316Z,16.44
2022-08-27T01:42:37.749Z,16.45
2022-08-27T01:45:39.661Z,16.46
2022-08-27T01:48:41.003Z,16.42
2022-08-27T01:51:44.064Z,16.37
2022-08-27T01:54:45.443Z,16.39
2022-08-27T01:57:46.905Z,16.32
2022-08-27T02:00:54.190Z,16.36
2022-08-27T02:03:57.920Z,16.38
2022-08-27T02:06:59.357Z,16.39
2022-08-27T02:10:00.684Z,16.35
2022-08-27T02:13:02.132Z,16.30
2022-08-27T02:16:03.802Z,16.32
2022-08-27T02:19:05.134Z,16.41
2022-08-27T02:22:11.175Z,16.42
2022-08-27T02:25:13.751Z,16.41
2022-08-27T02:28:15.151Z,16.40
2022-08-27T02:31:18.294Z,16.38
2022-08-27T02:34:19.717Z,16.39
2022-08-27T02:37:22.243Z,16.40
2022-08-27T02:40:24.438Z,16.40
2022-08-27T02:43:25.825Z,16.40
2022-08-27T02:46:29.968Z,16.40
2022-08-27T02:49:31.350Z,16.41
2022-08-27T02:52:32.722Z,16.36
2022-08-27T02:55:34.174Z,16.36
2022-08-27T02:58:36.558Z,16.38
2022-08-27T03:01:38.053Z,16.36
2022-08-27T03:04:39.535Z,16.37
2022-08-27T03:07:41.143Z,16.39
2022-08-27T03:10:42.462Z,16.39
2022-08-27T03:13:43.846Z,16.41
2022-08-27T03:16:45.192Z,16.44
2022-08-27T03:19:46.597Z,16.46
2022-08-27T03:22:47.965Z,16.50
2022-08-27T03:25:51.522Z,16.47
2022-08-27T03:28:52.915Z,16.49
2022-08-27T03:31:54.489Z,16.52
2022-08-27T03:34:56.983Z,16.52
2022-08-27T03:37:58.398Z,16.51
2022-08-27T03:40:59.741Z,16.52
2022-08-27T03:44:01.142Z,16.53
2022-08-27T03:47:02.476Z,16.58
2022-08-27T03:50:04.648Z,16.55
2022-08-27T03:53:06.006Z,16.53
2022-08-27T03:56:08.172Z,16.51
2022-08-27T03:59:09.599Z,16.46
2022-08-27T04:02:11.022Z,16.52
2022-08-27T04:05:16.192Z,16.48
2022-08-27T04:08:17.573Z,16.46
2022-08-27T04:11:18.973Z,16.52
2022-08-27T04:14:24.861Z,16.53
2022-08-27T04:17:28.851Z,16.51
2022-08-27T04:20:35.597Z,16.52
2022-08-27T04:23:38.605Z,16.53
2022-08-27T04:26:40.623Z,16.53
2022-08-27T04:29:42.186Z,16.61
2022-08-27T04:32:43.941Z,16.64
2022-08-27T04:35:45.329Z,16.64
2022-08-27T04:38:46.757Z,16.64
2022-08-27T04:41:51.680Z,16.65
2022-08-27T04:44:53.604Z,16.66
2022-08-27T04:47:54.977Z,16.66
2022-08-27T04:50:56.334Z,16.67
2022-08-27T04:54:01.058Z,16.65
2022-08-27T04:57:03.253Z,16.62
2022-08-27T05:00:04.797Z,16.58
2022-08-27T05:03:06.189Z,16.56
2022-08-27T05:06:07.597Z,16.57
2022-08-27T05:09:09.354Z,16.58
2022-08-27T05:12:11.071Z,16.60
2022-08-27T05:15:12.432Z,16.60
2022-08-27T05:18:14.030Z,16.61
2022-08-27T05:21:19.296Z,16.61
2022-08-27T05:24:20.821Z,16.63
2022-08-27T05:27:22.187Z,16.63
2022-08-27T05:30:23.545Z,16.65
2022-08-27T05:33:25.170Z,16.65
2022-08-27T05:36:30.310Z,16.68
2022-08-27T05:39:31.722Z,16.68
2022-08-27T05:42:33.221Z,16.70
2022-08-27T05:45:39.957Z,16.71
2022-08-27T05:48:41.512Z,16.73
2022-08-27T05:51:42.892Z,16.75
2022-08-27T05:54:44.322Z,16.71
2022-08-27T05:57:45.796Z,16.78
2022-08-27T06:01:08.264Z,16.85
2022-08-27T06:04:12.074Z,16.85
2022-08-27T06:07:19.477Z,16.80
2022-08-27T06:10:20.983Z,16.85
2022-08-27T06:13:23.460Z,16.88
2022-08-27T06:16:25.268Z,16.86
2022-08-27T06:19:26.665Z,16.93
2022-08-27T06:22:28.055Z,16.89
2022-08-27T06:25:32.215Z,17.02
2022-08-27T06:28:34.322Z,17.05
2022-08-27T06:31:35.725Z,17.04
2022-08-27T06:34:37.200Z,17.06
2022-08-27T06:37:39.472Z,16.99
2022-08-27T06:40:41.896Z,17.09
2022-08-27T06:43:43.323Z,17.22
2022-08-27T06:46:44.812Z,17.31
2022-08-27T06:49:46.417Z,17.20
2022-08-27T06:52:48.002Z,17.12
2022-08-27T06:55:49.359Z,17.18
2022-08-27T06:58:57.341Z,17.25
2022-08-27T07:01:59.188Z,17.36
2022-08-27T07:05:00.661Z,17.39
2022-08-27T07:08:02.160Z,17.49
2022-08-27T07:11:04.115Z,17.51
2022-08-27T07:14:06.256Z,17.52
2022-08-27T07:17:11.022Z,17.46
2022-08-27T07:20:13.055Z,17.55
2022-08-27T07:23:14.971Z,17.65
2022-08-27T07:26:16.593Z,17.71
2022-08-27T07:29:17.939Z,17.75
2022-08-27T07:32:19.853Z,17.94
2022-08-27T07:35:21.259Z,17.97
2022-08-27T07:38:22.705Z,18.12
2022-08-27T07:41:24.913Z,18.21
2022-08-27T07:44:34.375Z,18.22
2022-08-27T07:47:36.666Z,18.40
2022-08-27T07:50:38.156Z,18.63
2022-08-27T07:53:39.827Z,18.61
2022-08-27T07:56:41.237Z,18.53
2022-08-27T07:59:42.672Z,18.51
2022-08-27T08:02:45.014Z,18.52
2022-08-27T08:05:48.492Z,18.52
2022-08-27T08:08:49.974Z,18.50
2022-08-27T08:11:52.123Z,18.70
2022-08-27T08:14:57.818Z,18.53
2022-08-27T08:17:59.225Z,18.55
2022-08-27T08:21:04.613Z,18.70
2022-08-27T08:24:06.167Z,18.91
2022-08-27T08:27:08.025Z,18.98
2022-08-27T08:30:10.104Z,18.95
2022-08-27T08:33:13.396Z,19.18
2022-08-27T08:36:15.482Z,19.40
2022-08-27T08:39:18.491Z,19.68
2022-08-27T08:42:35.869Z,19.90
2022-08-27T08:45:37.513Z,20.22
2022-08-27T08:48:40.530Z,20.54
2022-08-27T08:51:44.182Z,20.60
2022-08-27T08:54:45.581Z,20.81
2022-08-27T08:58:05.758Z,21.22
2022-08-27T09:01:07.683Z,21.33
2022-08-27T09:04:09.500Z,21.54
2022-08-27T09:07:21.553Z,21.57
2022-08-27T09:10:27.072Z,22.02
2022-08-27T09:13:30.506Z,21.81
2022-08-27T09:16:32.597Z,22.19
2022-08-27T09:19:35.044Z,21.71
2022-08-27T09:22:38.317Z,21.37
2022-08-27T09:25:40.432Z,21.36
2022-08-27T09:29:00.575Z,21.30
2022-08-27T09:32:05.907Z,21.15
2022-08-27T09:35:08.571Z,20.94
2022-08-27T09:38:10.189Z,20.64
2022-08-27T09:41:13.571Z,20.56
2022-08-27T09:44:17.758Z,20.51
2022-08-27T09:47:19.184Z,20.20
2022-08-27T09:50:24.573Z,20.20
2022-08-27T09:53:27.305Z,20.03
2022-08-27T09:56:28.656Z,20.02
2022-08-27T09:59:33.136Z,20.01
2022-08-27T10:02:34.541Z,19.90
2022-08-27T10:05:39.999Z,19.73
2022-08-27T10:08:47.783Z,19.76
2022-08-27T10:11:55.384Z,19.62
2022-08-27T10:15:00.414Z,19.58
2022-08-27T10:18:10.175Z,19.54
2022-08-27T10:21:30.486Z,19.49
2022-08-27T10:24:44.044Z,19.43
2022-08-27T10:27:49.746Z,19.38
2022-08-27T10:31:00.164Z,19.25
2022-08-27T10:34:04.101Z,19.25
2022-08-27T10:37:24.018Z,19.29
2022-08-27T10:40:25.424Z,19.16
2022-08-27T10:43:45.486Z,19.06
2022-08-27T10:47:16.394Z,19.05
2022-08-27T10:50:27.387Z,19.11
2022-08-27T10:53:34.737Z,19.11
2022-08-27T10:56:38.332Z,19.13
2022-08-27T10:59:48.960Z,19.09
2022-08-27T11:02:54.045Z,19.20
2022-08-27T11:05:55.416Z,19.15
2022-08-27T11:09:07.778Z,19.11
2022-08-27T11:12:14.429Z,19.18
2022-08-27T11:15:16.134Z,19.17
2022-08-27T11:18:17.479Z,19.09
2022-08-27T11:21:37.753Z,19.17
2022-08-27T11:24:42.637Z,19.18
2022-08-27T11:27:44.719Z,19.15
2022-08-27T11:30:51.576Z,19.19
2022-08-27T11:33:52.971Z,19.14
2022-08-27T11:36:57.375Z,19.26
2022-08-27T11:40:19.406Z,19.30
2022-08-27T11:43:22.336Z,19.42
2022-08-27T11:46:25.075Z,19.53
2022-08-27T11:49:30.449Z,19.61
2022-08-27T11:52:33.396Z,19.57
2022-08-27T11:55:38.564Z,19.62
2022-08-27T11:58:52.906Z,19.80
2022-08-27T12:01:55.853Z,19.81
2022-08-27T12:05:10.806Z,19.99
2022-08-27T12:08:18.897Z,20.05
2022-08-27T12:11:29.007Z,20.23
2022-08-27T12:14:43.455Z,20.38
2022-08-27T12:17:50.203Z,20.56
2022-08-27T12:20:57.404Z,20.74
2022-08-27T12:23:58.893Z,20.88
2022-08-27T12:27:19.091Z,21.46
2022-08-27T12:30:26.458Z,21.94
2022-08-27T12:33:32.152Z,22.27
2022-08-27T12:36:35.290Z,23.23
2022-08-27T12:39:37.456Z,24.25
2022-08-27T12:42:38.954Z,24.67
2022-08-27T12:45:44.936Z,24.69
2022-08-27T12:48:47.434Z,24.22
2022-08-27T12:51:48.848Z,24.36
2022-08-27T12:54:59.046Z,23.59
2022-08-27T12:58:04.563Z,23.15
2022-08-27T13:01:09.847Z,22.95
2022-08-27T13:04:23.379Z,22.66
2022-08-27T13:07:25.441Z,22.77
2022-08-27T13:10:31.089Z,22.54
2022-08-27T13:13:32.472Z,22.42
2022-08-27T13:16:39.843Z,22.47
2022-08-27T13:19:51.223Z,22.53
2022-08-27T13:22:52.956Z,22.52
2022-08-27T13:25:55.503Z,22.68
2022-08-27T13:29:01.243Z,24.10
2022-08-27T13:32:04.901Z,24.51
2022-08-27T13:35:06.806Z,23.91
2022-08-27T13:38:08.278Z,23.76
2022-08-27T13:41:10.604Z,23.64
2022-08-27T13:44:12.982Z,23.35
2022-08-27T13:47:15.710Z,23.11
2022-08-27T13:50:24.339Z,23.12
2022-08-27T13:53:45.429Z,23.16
2022-08-27T13:56:46.770Z,22.88
2022-08-27T13:59:48.609Z,22.48
2022-08-27T14:02:55.404Z,22.69
2022-08-27T14:05:57.981Z,23.14
2022-08-27T14:09:09.761Z,24.18
2022-08-27T14:12:11.132Z,25.07
2022-08-27T14:15:24.620Z,24.68
2022-08-27T14:18:48.064Z,24.39
2022-08-27T14:21:48.766Z,24.14
2022-08-27T14:24:50.142Z,24.02
2022-08-27T14:27:54.621Z,23.41
2022-08-27T14:30:56.227Z,23.27
2022-08-27T14:33:57.998Z,22.85
2022-08-27T14:36:59.451Z,22.84
2022-08-27T14:40:01.126Z,23.02
2022-08-27T14:43:02.611Z,23.35
2022-08-27T14:46:04.049Z,23.34
2022-08-27T14:49:08.165Z,23.26
2022-08-27T14:52:09.735Z,23.00
2022-08-27T14:55:11.245Z,22.96
2022-08-27T14:58:13.928Z,22.86
2022-08-27T15:01:15.502Z,23.09
2022-08-27T15:04:16.946Z,23.18
2022-08-27T15:07:19.849Z,23.30
2022-08-27T15:10:24.218Z,23.26
2022-08-27T15:13:25.625Z,23.23
2022-08-27T15:16:30.629Z,23.53
2022-08-27T15:19:32.109Z,23.58
2022-08-27T15:22:34.050Z,23.52
2022-08-27T15:25:35.445Z,23.32
2022-08-27T15:28:37.230Z,23.50
2022-08-27T15:31:38.718Z,23.49
2022-08-27T15:34:40.282Z,23.56
2022-08-27T15:37:41.910Z,23.52
2022-08-27T15:40:43.424Z,23.52
2022-08-27T15:43:44.885Z,23.62
2022-08-27T15:46:46.288Z,23.58
2022-08-27T15:49:47.691Z,23.39
2022-08-27T15:52:49.094Z,23.49
2022-08-27T15:55:50.490Z,23.38
2022-08-27T15:58:51.882Z,23.15
2022-08-27T16:01:54.664Z,22.93
2022-08-27T16:04:56.111Z,22.81
2022-08-27T16:07:57.542Z,22.58
2022-08-27T16:10:59.086Z,22.56
2022-08-27T16:14:03.065Z,22.57
2022-08-27T16:17:04.474Z,22.30
2022-08-27T16:20:11.773Z,22.38
2022-08-27T16:23:13.782Z,22.29
2022-08-27T16:26:16.438Z,22.30
2022-08-27T16:29:17.901Z,22.32
2022-08-27T16:32:19.312Z,22.21
2022-08-27T16:35:20.790Z,22.20
2022-08-27T16:38:22.254Z,22.06
2022-08-27T16:41:23.643Z,21.95
2022-08-27T16:44:26.289Z,21.85
2022-08-27T16:47:27.693Z,21.76
2022-08-27T16:50:35.106Z,21.65
2022-08-27T16:53:37.597Z,21.55
2022-08-27T16:56:40.309Z,21.46
2022-08-27T16:59:41.753Z,21.23
2022-08-27T17:02:43.147Z,21.15
2022-08-27T17:05:44.566Z,21.01
2022-08-27T17:08:47.975Z,20.85
2022-08-27T17:11:52.941Z,20.76
2022-08-27T17:14:55.826Z,20.66
2022-08-27T17:17:57.980Z,20.58
2022-08-27T17:20:59.415Z,20.63
2022-08-27T17:24:02.397Z,20.59
2022-08-27T17:27:03.913Z,20.62
2022-08-27T17:30:05.788Z,20.63
2022-08-27T17:33:08.522Z,20.55
2022-08-27T17:36:10.119Z,20.46
2022-08-27T17:39:12.177Z,20.37
2022-08-27T17:42:13.574Z,20.31
2022-08-27T17:45:17.131Z,20.25
2022-08-27T17:48:21.804Z,20.16
2022-08-27T17:51:27.452Z,20.10
2022-08-27T17:54:32.295Z,20.00
2022-08-27T17:57:40.115Z,19.93
2022-08-27T18:00:44.943Z,19.86
2022-08-27T18:03:47.756Z,19.76
2022-08-27T18:06:49.501Z,19.73
2022-08-27T18:09:50.956Z,19.63
2022-08-27T18:12:52.570Z,19.56
2022-08-27T18:15:53.983Z,19.48
2022-08-27T18:18:55.364Z,19.40
2022-08-27T18:21:56.797Z,19.29
2022-08-27T18:24:58.377Z,19.22
2022-08-27T18:28:01.038Z,19.12
2022-08-27T18:31:06.569Z,19.08
2022-08-27T18:34:08.246Z,19.04
2022-08-27T18:37:09.780Z,19.03
2022-08-27T18:40:11.267Z,18.88
2022-08-27T18:43:13.374Z,18.84
2022-08-27T18:46:14.803Z,18.79
2022-08-27T18:49:16.330Z,18.74
2022-08-27T18:52:17.712Z,18.68
2022-08-27T18:55:20.334Z,18.58
2022-08-27T18:58:21.805Z,18.54
2022-08-27T19:01:24.840Z,18.49
2022-08-27T19:04:26.691Z,18.40
2022-08-27T19:07:29.706Z,18.32
2022-08-27T19:10:31.348Z,18.23
2022-08-27T19:13:32.792Z,18.19
2022-08-27T19:16:44.567Z,18.12
2022-08-27T19:19:45.980Z,18.04
2022-08-27T19:22:47.466Z,18.00
2022-08-27T19:25:49.929Z,17.95
2022-08-27T19:28:51.365Z,17.90
2022-08-27T19:31:52.883Z,17.84
2022-08-27T19:34:54.630Z,17.72
2022-08-27T19:37:56.074Z,17.63
2022-08-27T19:40:58.034Z,17.53
2022-08-27T19:43:59.463Z,17.50
2022-08-27T19:47:00.886Z,17.50
2022-08-27T19:50:03.046Z,17.43
2022-08-27T19:53:04.493Z,17.25
2022-08-27T19:56:07.207Z,17.17
2022-08-27T19:59:20.390Z,17.07
2022-08-27T20:02:23.082Z,17.04
2022-08-27T20:05:24.551Z,17.01
2022-08-27T20:08:25.976Z,16.94
2022-08-27T20:11:27.368Z,17.01
2022-08-27T20:14:28.892Z,17.02
2022-08-27T20:17:32.171Z,16.96
2022-08-27T20:20:33.707Z,16.85
2022-08-27T20:23:35.079Z,16.84
2022-08-27T20:26:36.512Z,16.86
2022-08-27T20:29:37.954Z,16.83
2022-08-27T20:32:39.363Z,16.88
2022-08-27T20:35:40.775Z,16.75
2022-08-27T20:38:42.184Z,16.71
2022-08-27T20:41:43.551Z,16.73
2022-08-27T20:44:45.784Z,16.62
2022-08-27T20:47:47.484Z,16.67
2022-08-27T20:50:48.841Z,16.62
2022-08-27T20:53:50.239Z,16.56
2022-08-27T20:56:52.102Z,16.51
2022-08-27T21:00:13.173Z,16.45
2022-08-27T21:03:14.633Z,16.41
2022-08-27T21:06:16.024Z,16.44
2022-08-27T21:09:18.375Z,16.45
2022-08-27T21:12:22.727Z,16.48
2022-08-27T21:15:24.432Z,16.51
2022-08-27T21:18:29.814Z,16.47
2022-08-27T21:21:31.530Z,16.36
2022-08-27T21:24:33.848Z,16.33
2022-08-27T21:27:35.240Z,16.29
2022-08-27T21:30:36.674Z,16.27
2022-08-27T21:33:39.385Z,16.28
2022-08-27T21:36:41.133Z,16.21
2022-08-27T21:39:42.542Z,16.12
2022-08-27T21:42:43.993Z,16.15
2022-08-27T21:45:45.569Z,16.12
2022-08-27T21:48:47.688Z,16.09
2022-08-27T21:52:00.298Z,16.08
2022-08-27T21:55:01.738Z,16.11
2022-08-27T21:58:03.324Z,16.10
2022-08-27T22:01:05.646Z,16.01
2022-08-27T22:04:07.298Z,16.04
2022-08-27T22:07:08.692Z,16.06
2022-08-27T22:10:10.058Z,16.01
2022-08-27T22:13:11.596Z,16.03
2022-08-27T22:16:13.017Z,15.96
2022-08-27T22:19:14.416Z,15.85
2022-08-27T22:22:15.830Z,15.90
2022-08-27T22:25:18.321Z,15.83
2022-08-27T22:28:19.709Z,15.85
2022-08-27T22:31:21.365Z,15.86
2022-08-27T22:34:22.788Z,15.84
2022-08-27T22:37:24.186Z,15.82
2022-08-27T22:40:25.875Z,15.82
2022-08-27T22:43:29.120Z,15.84
2022-08-27T22:46:30.576Z,15.72
2022-08-27T22:49:32.003Z,15.70
2022-08-27T22:52:33.369Z,15.70
2022-08-27T22:55:34.822Z,15.73
2022-08-27T22:58:36.222Z,15.63
2022-08-27T23:01:37.659Z,15.61
2022-08-27T23:04:54.532Z,15.60
2022-08-27T23:07:56.626Z,15.59
2022-08-27T23:10:58.039Z,15.57
2022-08-27T23:13:59.603Z,15.56
2022-08-27T23:17:01.016Z,15.55
2022-08-27T23:20:02.827Z,15.53
2022-08-27T23:23:04.198Z,15.43
2022-08-27T23:26:24.213Z,15.39
2022-08-27T23:29:25.581Z,15.35
2022-08-27T23:32:27.005Z,15.29
2022-08-27T23:35:29.192Z,15.31
2022-08-27T23:38:30.589Z,15.34
2022-08-27T23:41:31.981Z,15.27
2022-08-27T23:44:33.415Z,15.27
2022-08-27T23:47:34.830Z,15.29
2022-08-27T23:50:36.370Z,15.21
2022-08-27T23:53:37.793Z,15.16
2022-08-27T23:56:39.165Z,15.21
2022-08-27T23:59:40.558Z,15.23
